Time;durP1;ratioP1;P1;durP2;ratioP2;P2;SDS_P1;SDS_P2;PMS_P1;PMS_P2;Temp;Humidity;BMP_temperature;BMP_pressure;BME280_temperature;BME280_humidity;BME280_pressure;Samples;Min_cycle;Max_cycle;Signal;HPM_P1;HPM_P2
2022/02/27 00:00:10;;;;;;;;;;;;;;;-3.13;100.00;97113.50;1043219;28;19912;-72
2022/02/27 00:00:40;;;;;;;;;;;;;;;-3.14;100.00;97105.97;1035224;28;19937;-71
2022/02/27 00:01:11;;;;;;;;;;;;;;;-3.12;100.00;97110.00;1035798;28;19964;-71
2022/02/27 00:01:41;;;;;;;;;;;;;;;-3.11;100.00;97106.47;1023314;28;19917;-72
2022/02/27 00:02:11;;;;;;;;;;;;;;;-3.13;100.00;97112.69;1021518;28;19921;-71
2022/02/27 00:02:42;;;;;;;;;;;;;;;-3.12;100.00;97117.69;1030743;28;20209;-72
2022/02/27 00:03:12;;;;;;;;;;;;;;;-3.11;100.00;97105.69;1027496;28;19977;-71
2022/02/27 00:03:42;;;;;;;;;;;;;;;-3.15;100.00;97105.16;1027032;28;19970;-72
2022/02/27 00:04:16;;;;;;;;;;;;;;;-3.16;100.00;97113.78;1027334;28;19953;-72
2022/02/27 00:04:46;;;;;;;;;;;;;;;-3.12;100.00;97109.16;1027975;28;19920;-72
2022/02/27 00:05:16;;;;;;;;;;;;;;;-3.11;100.00;97105.69;1027348;28;20291;-72
2022/02/27 00:05:47;;;;;;;;;;;;;;;-3.13;100.00;97107.56;1027557;28;20383;-72
2022/02/27 00:06:17;;;;;;;;;;;;;;;-3.12;100.00;97106.59;1028463;28;20752;-71
2022/02/27 00:06:47;;;;;;;;;;;;;;;-3.13;100.00;97108.38;1029850;28;19914;-72
2022/02/27 00:07:17;;;;;;;;;;;;;;;-3.14;100.00;97106.75;1026149;28;20299;-70
2022/02/27 00:07:48;;;;;;;;;;;;;;;-3.10;100.00;97107.28;1027382;28;19914;-72
2022/02/27 00:08:18;;;;;;;;;;;;;;;-3.14;100.00;97106.75;1027295;28;19922;-71
2022/02/27 00:08:49;;;;;;;;;;;;;;;-3.15;100.00;97110.28;1030668;28;19921;-72
2022/02/27 00:09:19;;;;;;;;;;;;;;;-3.20;100.00;97112.47;1031248;28;19914;-71
2022/02/27 00:09:49;;;;;;;;;;;;;;;-3.19;100.00;97110.69;1026604;28;20310;-71
2022/02/27 00:10:21;;;;;;;;;;;;;;;-3.20;100.00;97111.66;1027277;28;19958;-72
2022/02/27 00:10:52;;;;;;;;;;;;;;;-3.24;100.00;97106.00;1030704;28;20482;-72
2022/02/27 00:11:23;;;;;;;;;;;;;;;-3.21;100.00;97115.19;1031623;28;19914;-71
2022/02/27 00:11:53;;;;;;;;;;;;;;;-3.21;100.00;97103.16;1036307;28;19949;-72
2022/02/27 00:12:23;;;;;;;;;;;;;;;-3.17;100.00;97109.59;1031394;28;19977;-71
2022/02/27 00:12:54;;;;;;;;;;;;;;;-3.22;100.00;97104.09;1031316;28;20150;-72
2022/02/27 00:13:24;;;;;;;;;;;;;;;-3.25;100.00;97112.09;1023140;28;19915;-72
2022/02/27 00:13:54;;;;;;;;;;;;;;;-3.20;100.00;97107.31;1027021;28;19915;-71
2022/02/27 00:14:25;;;;;;;;;;;;;;;-3.17;100.00;97101.09;1031344;28;19914;-73
2022/02/27 00:14:55;;;;;;;;;;;;;;;-3.21;100.00;97110.03;1027319;28;20780;-71
2022/02/27 00:15:25;;;;;;;;;;;;;;;-3.22;100.00;97106.69;1035137;28;19917;-71
2022/02/27 00:15:56;;;;;;;;;;;;;;;-3.24;100.00;97106.00;1034137;28;20312;-71
2022/02/27 00:16:26;;;;;;;;;;;;;;;-3.24;100.00;97103.44;1027318;28;20784;-72
2022/02/27 00:16:56;;;;;;;;;;;;;;;-3.23;100.00;97105.03;1035265;28;20264;-70
2022/02/27 00:17:27;;;;;;;;;;;;;;;-3.24;100.00;97103.44;1034711;28;19955;-71
2022/02/27 00:17:57;;;;;;;;;;;;;;;-3.24;100.00;97106.00;1030663;28;19935;-70
2022/02/27 00:18:27;;;;;;;;;;;;;;;-3.25;100.00;97104.38;1026032;28;20427;-70
2022/02/27 00:18:58;;;;;;;;;;;;;;;-3.24;100.00;97106.00;1030974;28;20423;-71
2022/02/27 00:19:28;;;;;;;;;;;;;;;-3.27;100.00;97105.47;1034648;28;19909;-71
2022/02/27 00:19:58;;;;;;;;;;;;;;;-3.29;100.00;97107.38;1039408;28;20442;-72
2022/02/27 00:20:29;;;;;;;;;;;;;;;-3.28;100.00;97104.69;1031121;28;20137;-72
2022/02/27 00:21:00;;;;;;;;;;;;;;;-3.29;100.00;97103.03;1031311;28;19916;-71
2022/02/27 00:21:31;;;;;;;;;;;;;;;-3.27;100.00;97101.16;1039096;28;19932;-72
2022/02/27 00:22:01;;;;;;;;;;;;;;;-3.27;100.00;97101.16;1031305;28;19910;-72
2022/02/27 00:22:32;;;;;;;;;;;;;;;-3.28;100.00;97099.53;1027228;28;20004;-72
2022/02/27 00:23:02;;;;;;;;;;;;;;;-3.32;100.00;97098.19;1031164;28;19906;-71
2022/02/27 00:23:33;;;;;;;;;;;;;;;-3.32;100.00;97098.19;1027200;28;19914;-71
2022/02/27 00:24:03;;;;;;;;;;;;;;;-3.30;100.00;97098.06;1030931;28;19964;-72
2022/02/27 00:24:34;;;;;;;;;;;;;;;-3.30;100.00;97101.44;1027403;28;19926;-72
2022/02/27 00:25:04;;;;;;;;;;;;;;;-3.27;100.00;97096.00;1031294;28;20437;-71
2022/02/27 00:25:35;;;;;;;;;;;;;;;-3.30;100.00;97098.84;1031498;28;19910;-72
2022/02/27 00:26:05;;;;;;;;;;;;;;;-3.30;100.00;97101.44;1035115;28;19914;-72
2022/02/27 00:26:36;;;;;;;;;;;;;;;-3.28;100.00;97104.69;1035373;28;19913;-71
2022/02/27 00:27:06;;;;;;;;;;;;;;;-3.26;100.00;97105.31;1033486;28;19969;-71
2022/02/27 00:27:37;;;;;;;;;;;;;;;-3.27;100.00;97106.28;1035106;28;19910;-71
2022/02/27 00:28:10;;;;;;;;;;;;;;;-3.24;100.00;97103.44;1031094;28;19917;-72
2022/02/27 00:28:41;;;;;;;;;;;;;;;-3.25;100.00;97109.53;1027615;28;20009;-72
2022/02/27 00:29:12;;;;;;;;;;;;;;;-3.21;100.00;97104.91;1026999;28;20702;-71
2022/02/27 00:29:42;;;;;;;;;;;;;;;-3.27;100.00;97106.28;1027079;28;19910;-72
2022/02/27 00:30:12;;;;;;;;;;;;;;;-3.28;100.00;97101.31;1027088;28;19920;-72
2022/02/27 00:30:43;;;;;;;;;;;;;;;-3.25;100.00;97103.56;1029554;28;19914;-71
2022/02/27 00:31:13;;;;;;;;;;;;;;;-3.28;100.00;97103.88;1039487;28;19913;-71
2022/02/27 00:31:43;;;;;;;;;;;;;;;-3.25;100.00;97099.25;1039182;28;19913;-71
2022/02/27 00:32:14;;;;;;;;;;;;;;;-3.24;100.00;97095.72;1039455;28;19933;-71
2022/02/27 00:32:44;;;;;;;;;;;;;;;-3.23;100.00;97102.47;1035934;28;20367;-71
2022/02/27 00:33:14;;;;;;;;;;;;;;;-3.23;100.00;97097.34;1027531;28;19921;-71
2022/02/27 00:33:45;;;;;;;;;;;;;;;-3.25;100.00;97096.69;1027494;28;19914;-71
2022/02/27 00:34:15;;;;;;;;;;;;;;;-3.28;100.00;97094.41;1031361;28;19925;-71
2022/02/27 00:34:45;;;;;;;;;;;;;;;-3.22;100.00;97093.00;1031338;28;19972;-72
2022/02/27 00:35:16;;;;;;;;;;;;;;;-3.23;100.00;97092.22;1032722;28;19918;-71
2022/02/27 00:35:46;;;;;;;;;;;;;;;-3.25;100.00;97094.13;1034210;28;19910;-71
2022/02/27 00:36:19;;;;;;;;;;;;;;;-3.22;100.00;97103.28;1024760;28;19914;-71
2022/02/27 00:36:53;;;;;;;;;;;;;;;-3.22;100.00;97103.28;1027301;28;19910;-71
2022/02/27 00:37:26;;;;;;;;;;;;;;;-3.20;100.00;97097.06;1023188;28;19964;-71
2022/02/27 00:37:56;;;;;;;;;;;;;;;-3.21;100.00;97098.03;1027817;28;19920;-71
2022/02/27 00:38:27;;;;;;;;;;;;;;;-3.24;100.00;97100.88;1036023;28;19932;-72
2022/02/27 00:38:57;;;;;;;;;;;;;;;-3.24;100.00;97100.88;1035040;28;19917;-72
2022/02/27 00:39:28;;;;;;;;;;;;;;;-3.24;100.00;97100.88;1030746;28;19937;-70
2022/02/27 00:39:58;;;;;;;;;;;;;;;-3.24;100.00;97095.72;1034831;28;20443;-71
2022/02/27 00:40:28;;;;;;;;;;;;;;;-3.23;100.00;97101.66;1035260;28;19972;-72
2022/02/27 00:40:59;;;;;;;;;;;;;;;-3.25;100.00;97104.38;1035328;28;19917;-71
2022/02/27 00:41:29;;;;;;;;;;;;;;;-3.22;100.00;97093.84;1039361;28;19925;-71
2022/02/27 00:41:59;;;;;;;;;;;;;;;-3.61;100.00;97041.88;1035279;28;19913;-71
2022/02/27 00:42:30;;;;;;;;;;;;;;;-3.27;100.00;97106.28;1034240;28;20020;-72
2022/02/27 00:43:00;;;;;;;;;;;;;;;-3.26;100.00;97096.81;1027051;28;20289;-72
2022/02/27 00:43:31;;;;;;;;;;;;;;;-3.27;100.00;97108.84;1034822;28;20379;-72
2022/02/27 00:44:01;;;;;;;;;;;;;;;-3.27;100.00;97106.28;1031211;28;19953;-71
2022/02/27 00:44:31;;;;;;;;;;;;;;;-3.26;100.00;97109.66;1031247;28;19913;-71
2022/02/27 00:45:02;;;;;;;;;;;;;;;-3.25;100.00;97108.69;1035423;28;19914;-70
2022/02/27 00:45:33;;;;;;;;;;;;;;;-3.29;100.00;97113.31;1031581;28;19910;-71
2022/02/27 00:46:06;;;;;;;;;;;;;;;-3.28;100.00;97109.00;1031267;28;19910;-72
2022/02/27 00:46:36;;;;;;;;;;;;;;;-3.26;100.00;97107.88;1028207;28;19965;-71
2022/02/27 00:47:07;;;;;;;;;;;;;;;-3.27;100.00;97098.59;1035940;28;20114;-71
2022/02/27 00:47:42;;;;;;;;;;;;;;;-3.27;100.00;97105.47;1037112;28;19945;-71
2022/02/27 00:48:15;;;;;;;;;;;;;;;-3.27;100.00;97100.34;1036494;28;19917;-71
2022/02/27 00:48:45;;;;;;;;;;;;;;;-3.28;100.00;97096.97;1031246;28;19913;-72
2022/02/27 00:49:15;;;;;;;;;;;;;;;-3.26;100.00;97097.63;1032284;28;19976;-71
2022/02/27 00:49:46;;;;;;;;;;;;;;;-3.27;100.00;97098.59;1031514;28;19997;-72
2022/02/27 00:50:16;;;;;;;;;;;;;;;-3.27;100.00;97101.16;1031451;28;19910;-71
2022/02/27 00:50:46;;;;;;;;;;;;;;;-3.27;100.00;97098.59;1035669;28;19959;-71
2022/02/27 00:51:17;;;;;;;;;;;;;;;-3.26;100.00;97101.94;1031633;28;20733;-71
2022/02/27 00:51:47;;;;;;;;;;;;;;;-3.23;100.00;97091.41;1027477;28;19911;-71
2022/02/27 00:52:22;;;;;;;;;;;;;;;-3.26;100.00;97101.94;1031795;28;19917;-72
2022/02/27 00:52:52;;;;;;;;;;;;;;;-3.25;100.00;97099.25;1028010;28;20406;-71
2022/02/27 00:53:23;;;;;;;;;;;;;;;-3.25;100.00;97099.25;1028249;28;19974;-71
2022/02/27 00:53:53;;;;;;;;;;;;;;;-3.27;100.00;97097.78;1028239;28;20603;-71
2022/02/27 00:54:23;;;;;;;;;;;;;;;-3.28;100.00;97096.16;1032258;28;19967;-72
2022/02/27 00:54:54;;;;;;;;;;;;;;;-3.27;100.00;97100.34;1030984;28;19910;-71
2022/02/27 00:55:24;;;;;;;;;;;;;;;-3.25;100.00;97101.00;1027550;28;19917;-71
2022/02/27 00:55:54;;;;;;;;;;;;;;;-3.27;100.00;97101.16;1031236;28;19914;-71
2022/02/27 00:56:25;;;;;;;;;;;;;;;-3.28;100.00;97104.69;1031473;28;19964;-70
2022/02/27 00:56:55;;;;;;;;;;;;;;;-3.23;100.00;97107.59;1038669;28;19920;-71
2022/02/27 00:57:25;;;;;;;;;;;;;;;-3.26;100.00;97102.75;1035494;28;19913;-70
2022/02/27 00:57:56;;;;;;;;;;;;;;;-3.28;100.00;97106.44;1035395;28;19977;-71
2022/02/27 00:58:29;;;;;;;;;;;;;;;-3.28;100.00;97109.00;1029453;28;19914;-71
2022/02/27 00:58:59;;;;;;;;;;;;;;;-3.24;100.00;97111.13;1031550;28;19910;-71
2022/02/27 00:59:30;;;;;;;;;;;;;;;-3.25;100.00;97113.81;1030179;28;19910;-70
2022/02/27 01:00:00;;;;;;;;;;;;;;;-3.26;100.00;97114.78;1030924;28;19917;-69
2022/02/27 01:00:30;;;;;;;;;;;;;;;-3.28;100.00;97114.94;1027232;28;19914;-71
2022/02/27 01:01:01;;;;;;;;;;;;;;;-3.26;100.00;97112.22;1026953;28;20042;-70
2022/02/27 01:01:31;;;;;;;;;;;;;;;-3.27;100.00;97111.41;1027116;28;19922;-70
2022/02/27 01:02:01;;;;;;;;;;;;;;;-3.26;100.00;97104.50;1035130;28;20008;-71
2022/02/27 01:02:32;;;;;;;;;;;;;;;-3.25;100.00;97106.97;1035377;28;19920;-71
2022/02/27 01:03:02;;;;;;;;;;;;;;;-3.21;100.00;97103.16;1031197;28;19906;-70
2022/02/27 01:03:32;;;;;;;;;;;;;;;-3.22;100.00;97103.28;1031169;28;19914;-71
2022/02/27 01:04:06;;;;;;;;;;;;;;;-3.22;100.00;97098.16;1031200;28;20041;-71
2022/02/27 01:04:36;;;;;;;;;;;;;;;-3.26;100.00;97107.88;1035354;28;19983;-70
2022/02/27 01:05:06;;;;;;;;;;;;;;;-3.29;100.00;97097.91;1035402;28;19920;-71
2022/02/27 01:05:37;;;;;;;;;;;;;;;-3.28;100.00;97102.09;1035599;28;19909;-71
2022/02/27 01:06:10;;;;;;;;;;;;;;;-3.29;100.00;97108.16;1028093;28;20396;-71
2022/02/27 01:06:40;;;;;;;;;;;;;;;-3.29;100.00;97107.38;1031271;28;19917;-70
2022/02/27 01:07:11;;;;;;;;;;;;;;;-3.28;100.00;97109.81;1027432;28;20018;-71
2022/02/27 01:07:41;;;;;;;;;;;;;;;-3.30;100.00;97106.56;1031224;28;20124;-71
2022/02/27 01:08:11;;;;;;;;;;;;;;;-3.31;100.00;97104.94;1030964;28;19906;-71
2022/02/27 01:08:44;;;;;;;;;;;;;;;-3.33;100.00;97101.72;1038071;28;20410;-70
2022/02/27 01:09:15;;;;;;;;;;;;;;;-3.35;100.00;97101.06;1039371;28;19914;-71
2022/02/27 01:09:45;;;;;;;;;;;;;;;-3.32;100.00;97099.03;1035204;28;19929;-70
2022/02/27 01:10:15;;;;;;;;;;;;;;;-3.37;100.00;97096.06;1039242;28;19917;-71
2022/02/27 01:10:46;;;;;;;;;;;;;;;-3.37;100.00;97097.81;1039543;28;19914;-71
2022/02/27 01:11:16;;;;;;;;;;;;;;;-3.37;100.00;97093.50;1031100;28;19961;-70
2022/02/27 01:11:46;;;;;;;;;;;;;;;-3.40;100.00;97095.53;1031278;28;19910;-71
2022/02/27 01:12:17;;;;;;;;;;;;;;;-3.40;100.00;97098.91;1035296;28;19957;-70
2022/02/27 01:12:47;;;;;;;;;;;;;;;-3.41;100.00;97094.72;1031170;28;20548;-70
2022/02/27 01:13:18;;;;;;;;;;;;;;;-3.42;100.00;97097.41;1027155;28;19914;-70
2022/02/27 01:13:48;;;;;;;;;;;;;;;-3.39;100.00;97097.94;1031203;28;20669;-70
2022/02/27 01:14:19;;;;;;;;;;;;;;;-3.41;100.00;97097.28;1027259;28;19921;-70
2022/02/27 01:14:49;;;;;;;;;;;;;;;-3.44;100.00;97099.34;1027636;28;19922;-70
2022/02/27 01:15:19;;;;;;;;;;;;;;;-3.45;100.00;97093.41;1040619;28;19917;-69
2022/02/27 01:15:50;;;;;;;;;;;;;;;-3.45;100.00;97097.72;1038636;28;19920;-70
2022/02/27 01:16:23;;;;;;;;;;;;;;;-3.45;100.00;97095.16;1035347;28;19913;-71
2022/02/27 01:16:53;;;;;;;;;;;;;;;-3.44;100.00;97094.19;1035547;28;19937;-71
2022/02/27 01:17:23;;;;;;;;;;;;;;;-3.46;100.00;97096.09;1038848;28;19913;-69
2022/02/27 01:17:54;;;;;;;;;;;;;;;-3.45;100.00;97093.41;1038965;28;20371;-70
2022/02/27 01:18:24;;;;;;;;;;;;;;;-3.46;100.00;97091.75;1039246;28;19913;-70
2022/02/27 01:18:55;;;;;;;;;;;;;;;-3.45;100.00;97097.72;1035389;28;19913;-70
2022/02/27 01:19:25;;;;;;;;;;;;;;;-3.47;100.00;97092.72;1035072;28;19914;-69
2022/02/27 01:19:55;;;;;;;;;;;;;;;-3.45;100.00;97095.16;1026874;28;20005;-70
2022/02/27 01:20:25;;;;;;;;;;;;;;;-3.44;100.00;97094.19;1027092;28;20343;-70
2022/02/27 01:20:56;;;;;;;;;;;;;;;-3.39;100.00;97092.81;1031434;28;20509;-70
2022/02/27 01:21:26;;;;;;;;;;;;;;;-3.41;100.00;97096.50;1031261;28;20419;-70
2022/02/27 01:21:56;;;;;;;;;;;;;;;-3.41;100.00;97092.16;1031125;28;19988;-70
2022/02/27 01:22:27;;;;;;;;;;;;;;;-3.40;100.00;97090.41;1035103;28;19942;-69
2022/02/27 01:22:57;;;;;;;;;;;;;;;-3.42;100.00;97092.28;1035391;28;19914;-70
2022/02/27 01:23:27;;;;;;;;;;;;;;;-3.38;100.00;97091.88;1031201;28;19945;-72
2022/02/27 01:23:58;;;;;;;;;;;;;;;-3.39;100.00;97082.53;1030759;28;19933;-72
2022/02/27 01:24:28;;;;;;;;;;;;;;;-3.43;100.00;97091.47;1035259;28;19909;-72
2022/02/27 01:24:58;;;;;;;;;;;;;;;-3.37;100.00;97090.13;1035256;28;19914;-69
2022/02/27 01:25:28;;;;;;;;;;;;;;;-3.40;100.00;97091.19;1035198;28;19916;-71
2022/02/27 01:25:59;;;;;;;;;;;;;;;-3.40;100.00;97087.84;1039362;28;20383;-71
2022/02/27 01:26:29;;;;;;;;;;;;;;;-3.40;100.00;97088.63;1039554;28;19944;-71
2022/02/27 01:26:59;;;;;;;;;;;;;;;-3.39;100.00;97081.75;1035299;28;20020;-71
2022/02/27 01:27:30;;;;;;;;;;;;;;;-3.41;100.00;97084.47;1035187;28;19941;-70
2022/02/27 01:28:00;;;;;;;;;;;;;;;-3.38;100.00;97083.38;1039147;28;19914;-72
2022/02/27 01:28:30;;;;;;;;;;;;;;;-3.56;100.00;97055.06;1039532;28;19909;-72
2022/02/27 01:29:01;;;;;;;;;;;;;;;-3.35;100.00;97086.47;1041386;28;19913;-72
2022/02/27 01:29:31;;;;;;;;;;;;;;;-3.36;100.00;97084.03;1034561;28;19980;-71
2022/02/27 01:30:02;;;;;;;;;;;;;;;-3.32;100.00;97081.06;1030978;28;19910;-70
2022/02/27 01:30:33;;;;;;;;;;;;;;;-3.32;100.00;97087.91;1026966;28;19914;-71
2022/02/27 01:31:03;;;;;;;;;;;;;;;-3.36;100.00;97086.59;1027572;28;19972;-72
2022/02/27 01:31:33;;;;;;;;;;;;;;;-3.37;100.00;97085.00;1026746;28;19914;-70
2022/02/27 01:32:04;;;;;;;;;;;;;;;-3.33;100.00;97086.31;1029945;28;19910;-71
2022/02/27 01:32:36;;;;;;;;;;;;;;;-3.29;100.00;97089.41;1034280;28;20556;-71
2022/02/27 01:33:07;;;;;;;;;;;;;;;-3.25;100.00;97089.00;1035597;28;19956;-70
2022/02/27 01:33:37;;;;;;;;;;;;;;;-3.22;100.00;97088.72;1039520;28;19932;-70
2022/02/27 01:34:07;;;;;;;;;;;;;;;-3.23;100.00;97092.22;1037160;28;20360;-72
2022/02/27 01:34:38;;;;;;;;;;;;;;;-3.23;100.00;97081.94;1039101;28;19912;-73
2022/02/27 01:35:11;;;;;;;;;;;;;;;-3.22;100.00;97083.56;1043362;28;20623;-71
2022/02/27 01:35:41;;;;;;;;;;;;;;;-3.22;100.00;97087.88;1038424;28;20000;-73
2022/02/27 01:36:11;;;;;;;;;;;;;;;-3.21;100.00;97085.19;1038277;28;20294;-72
2022/02/27 01:36:41;;;;;;;;;;;;;;;-3.22;100.00;97078.44;1031100;28;19925;-71
2022/02/27 01:37:12;;;;;;;;;;;;;;;-3.20;100.00;97079.09;1031103;28;19917;-72
2022/02/27 01:37:42;;;;;;;;;;;;;;;-3.20;100.00;97086.00;1035306;28;20433;-71
2022/02/27 01:38:12;;;;;;;;;;;;;;;-3.17;100.00;97075.44;1035159;28;19948;-73
2022/02/27 01:38:43;;;;;;;;;;;;;;;-3.19;100.00;97080.69;1036329;28;19976;-72
2022/02/27 01:39:13;;;;;;;;;;;;;;;-3.16;100.00;97085.53;1035809;28;19962;-72
2022/02/27 01:39:43;;;;;;;;;;;;;;;-3.38;100.00;97052.59;1035887;28;19910;-72
2022/02/27 01:40:14;;;;;;;;;;;;;;;-3.17;100.00;97083.13;1036424;28;19921;-71
2022/02/27 01:40:44;;;;;;;;;;;;;;;-3.15;100.00;97081.25;1038441;28;19914;-72
2022/02/27 01:41:14;;;;;;;;;;;;;;;-3.16;100.00;97082.97;1039374;28;19909;-71
2022/02/27 01:41:47;;;;;;;;;;;;;;;-3.18;100.00;97077.19;1032104;28;19945;-72
2022/02/27 01:42:21;;;;;;;;;;;;;;;-3.17;100.00;97089.06;1032299;28;19910;-71
2022/02/27 01:42:54;;;;;;;;;;;;;;;-3.14;100.00;97085.41;1032106;28;19970;-71
2022/02/27 01:43:24;;;;;;;;;;;;;;;-3.14;100.00;97083.66;1038390;28;19914;-70
2022/02/27 01:43:54;;;;;;;;;;;;;;;-3.14;100.00;97081.09;1043747;28;19949;-71
2022/02/27 01:44:25;;;;;;;;;;;;;;;-3.12;100.00;97084.34;1038802;28;19941;-71
2022/02/27 01:44:55;;;;;;;;;;;;;;;-3.12;100.00;97083.50;1038914;28;19913;-71
2022/02/27 01:45:25;;;;;;;;;;;;;;;-3.11;100.00;97082.56;1035373;28;20418;-73
2022/02/27 01:45:56;;;;;;;;;;;;;;;-3.11;100.00;97085.94;1035354;28;19914;-71
2022/02/27 01:46:26;;;;;;;;;;;;;;;-3.09;100.00;97075.50;1035192;28;19912;-70
2022/02/27 01:47:00;;;;;;;;;;;;;;;-3.06;100.00;97087.25;1039242;28;19913;-70
2022/02/27 01:47:30;;;;;;;;;;;;;;;-3.06;100.00;97082.94;1034364;28;19961;-71
2022/02/27 01:48:01;;;;;;;;;;;;;;;-3.04;100.00;97080.25;1030947;28;19910;-73
2022/02/27 01:48:31;;;;;;;;;;;;;;;-3.02;100.00;97078.31;1035408;28;19917;-71
2022/02/27 01:49:02;;;;;;;;;;;;;;;-3.02;100.00;97083.44;1031006;28;19917;-70
2022/02/27 01:49:32;;;;;;;;;;;;;;;-3.02;100.00;97083.44;1037797;28;19917;-71
2022/02/27 01:50:03;;;;;;;;;;;;;;;-3.03;100.00;97082.66;1038727;28;19968;-71
2022/02/27 01:50:33;;;;;;;;;;;;;;;-3.02;100.00;97080.88;1035173;28;19917;-72
2022/02/27 01:51:04;;;;;;;;;;;;;;;-3.01;100.00;97079.94;1031222;28;19921;-72
2022/02/27 01:51:34;;;;;;;;;;;;;;;-3.00;100.00;97079.00;1031172;28;19914;-71
2022/02/27 01:52:05;;;;;;;;;;;;;;;-2.99;100.00;97078.03;1027583;28;19932;-71
2022/02/27 01:52:35;;;;;;;;;;;;;;;-2.97;100.00;97076.13;1023138;28;20000;-70
2022/02/27 01:53:05;;;;;;;;;;;;;;;-3.00;100.00;97073.84;1027729;28;20643;-71
2022/02/27 01:53:36;;;;;;;;;;;;;;;-3.00;100.00;97072.09;1035287;28;19995;-71
2022/02/27 01:54:06;;;;;;;;;;;;;;;-2.97;100.00;97076.13;1039850;28;19905;-71
2022/02/27 01:54:36;;;;;;;;;;;;;;;-3.00;100.00;97072.09;1039399;28;19924;-70
2022/02/27 01:55:07;;;;;;;;;;;;;;;-2.98;100.00;97074.53;1040183;28;19913;-70
2022/02/27 01:55:37;;;;;;;;;;;;;;;-2.99;100.00;97073.69;1031073;28;20409;-71
2022/02/27 01:56:08;;;;;;;;;;;;;;;-3.02;100.00;97068.03;1030918;28;20327;-72
2022/02/27 01:56:38;;;;;;;;;;;;;;;-3.03;100.00;97074.16;1035642;28;19932;-69
2022/02/27 01:57:08;;;;;;;;;;;;;;;-3.04;100.00;97064.84;1027712;28;19910;-72
2022/02/27 01:57:39;;;;;;;;;;;;;;;-3.05;100.00;97068.34;1031890;28;20016;-71
2022/02/27 01:58:09;;;;;;;;;;;;;;;-3.05;100.00;97070.91;1031624;28;19906;-71
2022/02/27 01:58:39;;;;;;;;;;;;;;;-3.03;100.00;97062.09;1031453;28;19906;-70
2022/02/27 01:59:10;;;;;;;;;;;;;;;-3.04;100.00;97062.25;1031194;28;20638;-73
2022/02/27 01:59:40;;;;;;;;;;;;;;;-3.04;100.00;97060.50;1030829;28;19914;-69
2022/02/27 02:00:13;;;;;;;;;;;;;;;-3.01;100.00;97061.97;1035702;28;19913;-71
2022/02/27 02:00:44;;;;;;;;;;;;;;;-3.04;100.00;97063.06;1031688;28;20477;-72
2022/02/27 02:01:14;;;;;;;;;;;;;;;-3.04;100.00;97062.25;1027377;28;19965;-72
2022/02/27 02:01:44;;;;;;;;;;;;;;;-3.08;100.00;97059.97;1027568;28;19914;-72
2022/02/27 02:02:15;;;;;;;;;;;;;;;-3.06;100.00;97061.59;1023807;28;19922;-72
2022/02/27 02:02:45;;;;;;;;;;;;;;;-3.08;100.00;97059.19;1035687;28;19917;-71
2022/02/27 02:03:16;;;;;;;;;;;;;;;-3.08;100.00;97059.97;1031785;28;20351;-72
2022/02/27 02:03:46;;;;;;;;;;;;;;;-3.12;100.00;97066.38;1035704;28;19986;-71
2022/02/27 02:04:17;;;;;;;;;;;;;;;-3.10;100.00;97061.88;1032041;28;19910;-71
2022/02/27 02:04:47;;;;;;;;;;;;;;;-3.12;100.00;97062.97;1031814;28;20424;-72
2022/02/27 02:05:17;;;;;;;;;;;;;;;-3.12;100.00;97066.38;1033664;28;20011;-72
2022/02/27 02:05:48;;;;;;;;;;;;;;;-3.10;100.00;97064.44;1032474;28;19997;-71
2022/02/27 02:06:18;;;;;;;;;;;;;;;-3.10;100.00;97072.16;1036402;28;19918;-71
2022/02/27 02:06:48;;;;;;;;;;;;;;;-3.11;100.00;97062.84;1035837;28;19910;-72
2022/02/27 02:07:18;;;;;;;;;;;;;;;-3.09;100.00;97062.69;1040323;28;19909;-70
2022/02/27 02:07:49;;;;;;;;;;;;;;;-3.09;100.00;97063.47;1044985;28;19924;-72
2022/02/27 02:08:19;;;;;;;;;;;;;;;-3.12;100.00;97066.38;1040159;28;19917;-71
2022/02/27 02:08:49;;;;;;;;;;;;;;;-3.09;100.00;97062.69;1035164;28;19925;-70
2022/02/27 02:09:20;;;;;;;;;;;;;;;-3.09;100.00;97071.19;1031604;28;19924;-71
2022/02/27 02:09:51;;;;;;;;;;;;;;;-3.08;100.00;97075.38;1026994;28;19918;-70
2022/02/27 02:10:21;;;;;;;;;;;;;;;-3.09;100.00;97067.81;1029929;28;19918;-70
2022/02/27 02:10:51;;;;;;;;;;;;;;;-3.09;100.00;97063.47;1027974;28;19918;-70
2022/02/27 02:11:21;;;;;;;;;;;;;;;-3.12;100.00;97062.97;1031879;28;20450;-70
2022/02/27 02:11:52;;;;;;;;;;;;;;;-3.15;100.00;97064.09;1031623;28;19928;-69
2022/02/27 02:12:22;;;;;;;;;;;;;;;-3.13;100.00;97072.44;1035726;28;19920;-71
2022/02/27 02:12:54;;;;;;;;;;;;;;;-3.10;100.00;97061.88;1039938;28;19920;-72
2022/02/27 02:13:24;;;;;;;;;;;;;;;-3.12;100.00;97061.22;1035739;28;19944;-71
2022/02/27 02:13:55;;;;;;;;;;;;;;;-3.08;100.00;97064.31;1035508;28;20379;-72
2022/02/27 02:14:25;;;;;;;;;;;;;;;-3.09;100.00;97068.63;1035741;28;20126;-72
2022/02/27 02:14:55;;;;;;;;;;;;;;;-3.06;100.00;97061.59;1027843;28;19922;-72
2022/02/27 02:15:26;;;;;;;;;;;;;;;-3.08;100.00;97061.75;1027590;28;19917;-72
2022/02/27 02:15:56;;;;;;;;;;;;;;;-3.09;100.00;97068.63;1027601;28;20461;-69
2022/02/27 02:16:47;;;;;;;;;;;;;;;-3.08;100.00;97064.31;1031974;28;19918;-72
2022/02/27 02:17:17;;;;;;;;;;;;;;;-3.11;100.00;97065.41;1044945;28;19912;-70
2022/02/27 02:17:48;;;;;;;;;;;;;;;-3.10;100.00;97063.63;1040001;28;20326;-70
2022/02/27 02:18:18;;;;;;;;;;;;;;;-3.13;100.00;97062.16;1035690;28;19929;-70
2022/02/27 02:18:49;;;;;;;;;;;;;;;-3.14;100.00;97063.13;1027616;28;20442;-70
2022/02/27 02:19:20;;;;;;;;;;;;;;;-3.14;100.00;97063.13;1027859;28;20054;-70
2022/02/27 02:19:51;;;;;;;;;;;;;;;-3.13;100.00;97067.28;1035382;28;19948;-71
2022/02/27 02:20:21;;;;;;;;;;;;;;;-3.15;100.00;97063.28;1035947;28;19917;-70
2022/02/27 02:20:52;;;;;;;;;;;;;;;-3.16;100.00;97062.44;1031791;28;19914;-72
2022/02/27 02:21:22;;;;;;;;;;;;;;;-3.13;100.00;97064.72;1032957;28;20383;-72
2022/02/27 02:21:57;;;;;;;;;;;;;;;-3.16;100.00;97062.44;1035864;28;20462;-72
2022/02/27 02:22:28;;;;;;;;;;;;;;;-3.17;100.00;97060.84;1034777;28;19914;-71
2022/02/27 02:22:59;;;;;;;;;;;;;;;-3.18;100.00;97058.44;1036537;28;19910;-71
2022/02/27 02:23:32;;;;;;;;;;;;;;;-3.15;100.00;97061.50;1032068;28;20283;-71
2022/02/27 02:24:02;;;;;;;;;;;;;;;-3.15;100.00;97064.09;1032444;28;19918;-71
2022/02/27 02:24:32;;;;;;;;;;;;;;;-3.17;100.00;97065.97;1036192;28;19941;-71
2022/02/27 02:25:03;;;;;;;;;;;;;;;-3.17;100.00;97060.84;1028094;28;19977;-72
2022/02/27 02:25:33;;;;;;;;;;;;;;;-3.17;100.00;97065.97;1033623;28;20040;-72
2022/02/27 02:26:03;;;;;;;;;;;;;;;-3.17;100.00;97060.84;1036136;28;19959;-71
2022/02/27 02:26:34;;;;;;;;;;;;;;;-3.19;100.00;97065.28;1032363;28;19946;-71
2022/02/27 02:27:07;;;;;;;;;;;;;;;-3.17;100.00;97065.16;1036073;28;19920;-71
2022/02/27 02:27:37;;;;;;;;;;;;;;;-3.20;100.00;97061.13;1032468;28;19941;-71
2022/02/27 02:28:08;;;;;;;;;;;;;;;-3.18;100.00;97064.38;1032977;28;20525;-70
2022/02/27 02:28:38;;;;;;;;;;;;;;;-3.20;100.00;97066.25;1036365;28;19924;-71
2022/02/27 02:29:09;;;;;;;;;;;;;;;-3.21;100.00;97069.78;1035997;28;19918;-68
2022/02/27 02:29:39;;;;;;;;;;;;;;;-3.20;100.00;97076.53;1039893;28;19917;-70
2022/02/27 02:30:11;;;;;;;;;;;;;;;-3.21;100.00;97067.22;1040426;28;20304;-70
2022/02/27 02:30:41;;;;;;;;;;;;;;;-3.20;100.00;97071.38;1040193;28;19953;-71
2022/02/27 02:31:12;;;;;;;;;;;;;;;-3.20;100.00;97068.81;1035023;28;20398;-71
2022/02/27 02:31:43;;;;;;;;;;;;;;;-3.18;100.00;97064.38;1032257;28;19917;-71
2022/02/27 02:32:13;;;;;;;;;;;;;;;-3.19;100.00;97067.88;1030592;28;19917;-70
2022/02/27 02:32:50;;;;;;;;;;;;;;;-3.19;100.00;97072.19;1031900;28;19914;-70
2022/02/27 02:33:36;;;;;;;;;;;;;;;-3.19;100.00;97073.00;1030013;28;19910;-70
2022/02/27 02:34:10;;;;;;;;;;;;;;;-3.17;100.00;97065.97;1032000;28;19921;-69
2022/02/27 02:34:40;;;;;;;;;;;;;;;-3.20;100.00;97071.38;1030977;28;19910;-71
2022/02/27 02:35:10;;;;;;;;;;;;;;;-3.18;100.00;97061.81;1032153;28;19969;-71
2022/02/27 02:35:44;;;;;;;;;;;;;;;-3.16;100.00;97064.22;1028596;28;19981;-72
2022/02/27 02:36:15;;;;;;;;;;;;;;;-3.15;100.00;97064.09;1033314;28;19993;-71
2022/02/27 02:36:45;;;;;;;;;;;;;;;-3.15;100.00;97064.09;1031526;28;20446;-72
2022/02/27 02:37:15;;;;;;;;;;;;;;;-3.15;100.00;97069.22;1032088;28;19921;-72
2022/02/27 02:37:46;;;;;;;;;;;;;;;-3.15;100.00;97063.28;1031483;28;19918;-72